createdAt,value
2018-04-07T00:00:56.123Z,99.11
2018-04-07T00:01:56.230Z,99.50
2018-04-07T00:02:56.175Z,99.50
2018-04-07T00:03:56.157Z,99.50
2018-04-07T00:04:56.174Z,99.79
2018-04-07T00:05:56.199Z,99.50
2018-04-07T00:06:56.308Z,99.30
2018-04-07T00:07:56.222Z,99.11
2018-04-07T00:08:56.264Z,99.30
2018-04-07T00:09:56.254Z,99.69
2018-04-07T00:10:56.298Z,99.30
2018-04-07T00:11:56.394Z,99.21
2018-04-07T00:12:56.318Z,99.30
2018-04-07T00:13:56.331Z,99.30
2018-04-07T00:14:56.349Z,98.92
2018-04-07T00:15:56.358Z,99.50
2018-04-07T00:16:56.370Z,99.50
2018-04-07T00:17:56.387Z,99.30
2018-04-07T00:18:56.406Z,99.69
2018-04-07T00:19:56.414Z,99.11
2018-04-07T00:20:56.434Z,99.21
2018-04-07T00:21:56.555Z,98.92
2018-04-07T00:22:56.458Z,99.21
2018-04-07T00:23:56.478Z,99.59
2018-04-07T00:24:56.529Z,99.69
2018-04-07T00:25:56.539Z,99.44
2018-04-07T00:26:56.560Z,99.40
2018-04-07T00:27:56.568Z,99.35
2018-04-07T00:28:56.586Z,99.99
2018-04-07T00:29:56.574Z,99.35
2018-04-07T00:30:56.626Z,99.88
2018-04-07T00:31:56.605Z,99.84
2018-04-07T00:32:56.659Z,99.99
2018-04-07T00:33:56.641Z,99.79
2018-04-07T00:34:56.659Z,99.99
2018-04-07T00:35:56.681Z,99.64
2018-04-07T00:36:56.785Z,99.74
2018-04-07T00:37:56.734Z,99.99
2018-04-07T00:38:56.730Z,99.93
2018-04-07T00:39:56.763Z,99.84
2018-04-07T00:40:56.759Z,99.84
2018-04-07T00:41:56.766Z,99.98
2018-04-07T00:42:56.788Z,99.98
2018-04-07T00:43:56.798Z,99.99
2018-04-07T00:44:56.820Z,99.98
2018-04-07T00:45:56.825Z,99.99
2018-04-07T00:46:56.842Z,99.99
2018-04-07T00:47:56.890Z,99.99
2018-04-07T00:48:56.899Z,99.84
2018-04-07T00:49:56.976Z,99.98
2018-04-07T00:50:56.904Z,99.99
2018-04-07T00:51:56.950Z,99.99
2018-04-07T00:52:56.968Z,99.98
2018-04-07T00:53:56.962Z,99.98
2018-04-07T00:54:56.972Z,99.98
2018-04-07T00:55:56.999Z,99.88
2018-04-07T00:56:57.126Z,99.79
2018-04-07T00:57:57.049Z,99.99
2018-04-07T00:58:57.040Z,99.98
2018-04-07T00:59:57.062Z,99.98
2018-04-07T01:00:57.075Z,99.59
2018-04-07T01:01:57.209Z,99.98
2018-04-07T01:02:57.093Z,99.88
2018-04-07T01:03:57.128Z,99.98
2018-04-07T01:04:57.159Z,99.98
2018-04-07T01:05:57.147Z,99.79
2018-04-07T01:06:57.184Z,99.74
2018-04-07T01:07:57.177Z,99.98
2018-04-07T01:08:57.194Z,99.99
2018-04-07T01:09:57.210Z,99.99
2018-04-07T01:10:57.222Z,99.99
2018-04-07T01:11:57.238Z,99.99
2018-04-07T01:12:57.257Z,99.99
2018-04-07T01:13:57.272Z,99.93
2018-04-07T01:14:57.306Z,99.99
2018-04-07T01:15:57.302Z,99.99
2018-04-07T01:16:57.317Z,99.99
2018-04-07T01:17:57.428Z,99.99
2018-04-07T01:18:57.377Z,99.99
2018-04-07T01:19:57.365Z,99.99
2018-04-07T01:20:57.409Z,99.99
2018-04-07T01:21:57.402Z,99.99
2018-04-07T01:22:57.562Z,99.99
2018-04-07T01:23:57.453Z,99.99
2018-04-07T01:24:57.471Z,99.99
2018-04-07T01:25:57.487Z,99.99
2018-04-07T01:26:57.503Z,99.99
2018-04-07T01:27:57.590Z,99.99
2018-04-07T01:28:57.541Z,99.99
2018-04-07T01:29:57.527Z,99.88
2018-04-07T01:30:57.540Z,99.99
2018-04-07T01:31:57.575Z,99.99
2018-04-07T01:32:57.600Z,99.99
2018-04-07T01:33:57.605Z,99.99
2018-04-07T01:34:57.630Z,99.99
2018-04-07T01:35:57.626Z,99.99
2018-04-07T01:36:57.642Z,99.99
2018-04-07T01:37:57.753Z,99.99
2018-04-07T01:38:57.695Z,99.99
2018-04-07T01:39:57.688Z,99.99
2018-04-07T01:40:57.727Z,99.99
2018-04-07T01:41:57.722Z,99.99
2018-04-07T01:42:57.832Z,99.99
2018-04-07T01:43:57.770Z,99.99
2018-04-07T01:44:57.765Z,99.99
2018-04-07T01:45:57.781Z,99.99
2018-04-07T01:46:57.820Z,99.99
2018-04-07T01:47:57.818Z,99.99
2018-04-07T01:48:57.837Z,99.99
2018-04-07T01:49:57.848Z,99.99
2018-04-07T01:50:57.883Z,99.99
2018-04-07T01:51:57.878Z,99.99
2018-04-07T01:52:57.915Z,99.99
2018-04-07T01:53:57.932Z,99.99
2018-04-07T01:54:57.944Z,99.99
2018-04-07T01:55:57.937Z,99.99
2018-04-07T01:56:57.978Z,99.99
2018-04-07T01:57:58.070Z,99.99
2018-04-07T01:58:58.006Z,99.99
2018-04-07T01:59:58.027Z,99.99
2018-04-07T02:00:58.024Z,99.99
2018-04-07T02:01:58.030Z,99.99
2018-04-07T02:02:58.147Z,99.99
2018-04-07T02:03:58.073Z,99.99
2018-04-07T02:04:58.083Z,99.99
2018-04-07T02:05:58.108Z,99.99
2018-04-07T02:06:58.120Z,99.99
2018-04-07T02:07:58.127Z,99.99
2018-04-07T02:08:58.318Z,99.99
2018-04-07T02:09:58.180Z,99.99
2018-04-07T02:10:58.199Z,99.99
2018-04-07T02:11:58.214Z,99.99
2018-04-07T02:12:58.208Z,99.99
2018-04-07T02:13:58.248Z,99.99
2018-04-07T02:14:58.261Z,99.99
2018-04-07T02:15:58.258Z,99.99
2018-04-07T02:16:58.265Z,99.99
2018-04-07T02:17:58.281Z,99.99
2018-04-07T02:18:58.448Z,99.99
2018-04-07T02:19:58.308Z,99.99
2018-04-07T02:20:58.357Z,99.99
2018-04-07T02:21:58.376Z,99.99
2018-04-07T02:22:58.388Z,99.99
2018-04-07T02:23:58.375Z,99.99
2018-04-07T02:24:58.394Z,99.99
2018-04-07T02:25:58.409Z,99.99
2018-04-07T02:26:58.432Z,99.99
2018-04-07T02:27:58.443Z,99.99
2018-04-07T02:28:58.453Z,99.99
2018-04-07T02:29:58.497Z,99.99
2018-04-07T02:30:58.488Z,99.99
2018-04-07T02:31:58.520Z,99.99
2018-04-07T02:32:58.558Z,99.99
2018-04-07T02:33:58.534Z,99.99
2018-04-07T02:34:58.548Z,99.99
2018-04-07T02:35:58.570Z,99.99
2018-04-07T02:36:58.593Z,99.99
2018-04-07T02:37:58.642Z,99.99
2018-04-07T02:38:58.640Z,99.99
2018-04-07T02:39:58.630Z,99.99
2018-04-07T02:40:58.651Z,99.99
2018-04-07T02:41:58.662Z,99.99
2018-04-07T02:42:58.679Z,99.99
2018-04-07T02:43:58.690Z,99.99
2018-04-07T02:44:58.709Z,99.99
2018-04-07T02:45:58.744Z,99.99
2018-04-07T02:46:58.743Z,99.99
2018-04-07T02:47:58.784Z,99.99
2018-04-07T02:48:58.769Z,99.99
2018-04-07T02:49:58.783Z,99.99
2018-04-07T02:50:58.810Z,99.99
2018-04-07T02:51:58.824Z,99.99
2018-04-07T02:52:58.857Z,99.99
2018-04-07T02:53:59.023Z,99.99
2018-04-07T02:54:58.875Z,99.99
2018-04-07T02:55:58.872Z,99.99
2018-04-07T02:56:58.891Z,99.99
2018-04-07T02:57:58.931Z,99.99
2018-04-07T02:58:58.950Z,99.99
2018-04-07T02:59:58.942Z,99.99
2018-04-07T03:00:58.982Z,99.99
2018-04-07T03:01:58.985Z,99.99
2018-04-07T03:02:58.985Z,99.99
2018-04-07T03:03:59.029Z,99.99
2018-04-07T03:04:59.029Z,99.99
2018-04-07T03:05:59.042Z,99.99
2018-04-07T03:06:59.070Z,99.99
2018-04-07T03:07:59.106Z,99.99
2018-04-07T03:08:59.252Z,99.99
2018-04-07T03:09:59.095Z,99.99
2018-04-07T03:10:59.136Z,99.99
2018-04-07T03:11:59.138Z,99.99
2018-04-07T03:12:59.134Z,99.99
2018-04-07T03:13:59.253Z,99.99
2018-04-07T03:14:59.169Z,99.99
2018-04-07T03:15:59.185Z,99.99
2018-04-07T03:16:59.232Z,99.99
2018-04-07T03:17:59.244Z,99.99
2018-04-07T03:18:59.386Z,99.99
2018-04-07T03:19:59.276Z,99.99
2018-04-07T03:20:59.266Z,99.99
2018-04-07T03:21:59.304Z,99.99
2018-04-07T03:22:59.310Z,99.99
2018-04-07T03:23:59.405Z,99.99
2018-04-07T03:24:59.354Z,99.99
2018-04-07T03:25:59.357Z,99.99
2018-04-07T03:26:59.380Z,99.99
2018-04-07T03:27:59.398Z,99.99
2018-04-07T03:28:59.481Z,99.99
2018-04-07T03:29:59.401Z,99.99
2018-04-07T03:30:59.444Z,99.99
2018-04-07T03:31:59.510Z,99.99
2018-04-07T03:32:59.509Z,99.99
2018-04-07T03:33:59.612Z,99.99
2018-04-07T03:34:59.481Z,99.99
2018-04-07T03:35:59.496Z,99.99
2018-04-07T03:36:59.535Z,99.99
2018-04-07T03:37:59.553Z,99.99
2018-04-07T03:38:59.692Z,99.99
2018-04-07T03:39:59.583Z,99.99
2018-04-07T03:40:59.574Z,99.99
2018-04-07T03:41:59.589Z,99.99
2018-04-07T03:42:59.605Z,99.99
2018-04-07T03:43:59.719Z,99.99
2018-04-07T03:44:59.645Z,99.99
2018-04-07T03:45:59.663Z,99.99
2018-04-07T03:46:59.663Z,99.99
2018-04-07T03:47:59.687Z,99.99
2018-04-07T03:48:59.702Z,99.99
2018-04-07T03:49:59.729Z,99.99
2018-04-07T03:50:59.757Z,99.99
2018-04-07T03:51:59.739Z,99.99
2018-04-07T03:52:59.751Z,99.99
2018-04-07T03:53:59.874Z,99.99
2018-04-07T03:54:59.792Z,99.99
2018-04-07T03:55:59.830Z,99.99
2018-04-07T03:56:59.846Z,99.99
2018-04-07T03:57:59.844Z,99.99
2018-04-07T03:58:59.855Z,99.99
2018-04-07T03:59:59.864Z,99.99
2018-04-07T04:00:59.881Z,99.99
2018-04-07T04:01:59.898Z,99.99
2018-04-07T04:02:59.937Z,99.99
2018-04-07T04:04:00.029Z,99.99
2018-04-07T04:04:59.969Z,99.99
2018-04-07T04:05:59.984Z,99.99
2018-04-07T04:06:59.971Z,99.99
2018-04-07T04:07:59.993Z,99.99
2018-04-07T04:09:00.099Z,99.99
2018-04-07T04:10:00.043Z,99.99
2018-04-07T04:11:00.062Z,99.99
2018-04-07T04:12:00.051Z,99.99
2018-04-07T04:13:00.095Z,99.99
2018-04-07T04:14:00.208Z,99.99
2018-04-07T04:15:00.096Z,99.99
2018-04-07T04:16:00.138Z,99.99
2018-04-07T04:17:00.157Z,99.99
2018-04-07T04:18:00.141Z,99.99
2018-04-07T04:19:00.153Z,99.99
2018-04-07T04:20:00.167Z,99.99
2018-04-07T04:21:00.214Z,99.99
2018-04-07T04:22:00.229Z,99.99
2018-04-07T04:23:00.243Z,99.99
2018-04-07T04:24:00.231Z,99.99
2018-04-07T04:25:00.275Z,99.99
2018-04-07T04:26:00.257Z,99.99
2018-04-07T04:27:00.308Z,99.99
2018-04-07T04:28:00.291Z,99.99
2018-04-07T04:29:00.407Z,99.99
2018-04-07T04:30:00.330Z,99.99
2018-04-07T04:31:00.336Z,99.99
2018-04-07T04:32:00.352Z,99.99
2018-04-07T04:33:00.429Z,99.99
2018-04-07T04:34:00.411Z,99.99
2018-04-07T04:35:00.397Z,99.99
2018-04-07T04:36:00.428Z,99.99
2018-04-07T04:37:00.428Z,99.99
2018-04-07T04:38:00.440Z,99.99
2018-04-07T04:39:00.484Z,99.99
2018-04-07T04:40:00.473Z,99.99
2018-04-07T04:41:00.489Z,99.99
2018-04-07T04:42:00.508Z,99.99
2018-04-07T04:43:00.547Z,99.99
2018-04-07T04:44:00.633Z,99.99
2018-04-07T04:45:00.557Z,99.99
2018-04-07T04:46:00.593Z,99.99
2018-04-07T04:47:00.582Z,99.99
2018-04-07T04:48:00.598Z,99.99
2018-04-07T04:49:00.738Z,99.99
2018-04-07T04:50:00.637Z,99.99
2018-04-07T04:51:00.638Z,99.99
2018-04-07T04:52:00.669Z,99.99
2018-04-07T04:53:00.673Z,99.99
2018-04-07T04:54:00.814Z,99.99
2018-04-07T04:55:00.700Z,99.99
2018-04-07T04:56:00.740Z,99.99
2018-04-07T04:57:00.733Z,99.99
2018-04-07T04:58:00.771Z,99.99
2018-04-07T04:59:00.787Z,99.99
2018-04-07T05:00:00.810Z,99.99
2018-04-07T05:01:00.802Z,99.99
2018-04-07T05:02:00.824Z,99.99
2018-04-07T05:03:00.816Z,99.99
2018-04-07T05:04:00.967Z,99.99
2018-04-07T05:05:00.845Z,99.99
2018-04-07T05:06:00.866Z,99.99
2018-04-07T05:07:00.910Z,99.99
2018-04-07T05:08:00.895Z,99.99
2018-04-07T05:09:01.018Z,99.99
2018-04-07T05:10:00.941Z,99.99
2018-04-07T05:11:00.943Z,99.99
2018-04-07T05:12:00.954Z,99.99
2018-04-07T05:13:00.974Z,99.99
2018-04-07T05:14:01.089Z,99.99
2018-04-07T05:15:01.060Z,99.99
2018-04-07T05:16:01.050Z,99.99
2018-04-07T05:17:01.034Z,99.99
2018-04-07T05:18:01.074Z,99.99
2018-04-07T05:19:01.086Z,99.99
2018-04-07T05:20:01.072Z,99.99
2018-04-07T05:21:01.095Z,99.99
2018-04-07T05:22:01.135Z,99.99
2018-04-07T05:23:01.133Z,99.99
2018-04-07T05:24:01.150Z,99.99
2018-04-07T05:25:01.257Z,99.99
2018-04-07T05:26:01.195Z,99.99
2018-04-07T05:27:01.187Z,99.99
2018-04-07T05:28:01.204Z,99.99
2018-04-07T05:29:01.230Z,99.99
2018-04-07T05:30:01.330Z,99.99
2018-04-07T05:31:01.244Z,99.99
2018-04-07T05:32:01.267Z,99.99
2018-04-07T05:33:01.277Z,99.99
2018-04-07T05:34:01.285Z,99.99
2018-04-07T05:35:01.402Z,99.99
2018-04-07T05:36:01.318Z,99.99
2018-04-07T05:37:01.334Z,99.99
2018-04-07T05:38:01.351Z,99.99
2018-04-07T05:39:01.359Z,99.99
2018-04-07T05:40:01.556Z,99.99
2018-04-07T05:41:01.391Z,99.99
2018-04-07T05:42:01.408Z,99.99
2018-04-07T05:43:01.422Z,99.99
2018-04-07T05:44:01.466Z,99.99
2018-04-07T05:45:01.456Z,99.99
2018-04-07T05:46:01.466Z,99.99
2018-04-07T05:47:01.490Z,99.99
2018-04-07T05:48:01.522Z,99.99
2018-04-07T05:49:01.537Z,99.99
2018-04-07T05:50:01.652Z,99.99
2018-04-07T05:51:01.533Z,99.99
2018-04-07T05:52:01.560Z,99.99
2018-04-07T05:53:01.566Z,99.99
2018-04-07T05:54:01.600Z,99.99
2018-04-07T05:55:01.608Z,99.99
2018-04-07T05:56:01.615Z,99.99
2018-04-07T05:57:01.637Z,99.99
2018-04-07T05:58:01.640Z,99.99
2018-04-07T05:59:01.657Z,99.99
2018-04-07T06:00:01.684Z,99.99
2018-04-07T06:01:01.717Z,99.99
2018-04-07T06:02:01.700Z,99.99
2018-04-07T06:03:01.756Z,99.99
2018-04-07T06:04:01.755Z,99.99
2018-04-07T06:05:01.849Z,99.99
2018-04-07T06:06:01.763Z,99.99
2018-04-07T06:07:01.773Z,99.99
2018-04-07T06:08:01.826Z,99.99
2018-04-07T06:09:01.806Z,99.99
2018-04-07T06:10:01.945Z,99.99
2018-04-07T06:11:01.862Z,99.99
2018-04-07T06:12:01.874Z,99.99
2018-04-07T06:13:01.861Z,99.99
2018-04-07T06:14:01.909Z,99.99
2018-04-07T06:15:01.914Z,99.99
2018-04-07T06:16:01.942Z,99.99
2018-04-07T06:17:01.932Z,99.99
2018-04-07T06:18:01.963Z,99.99
2018-04-07T06:19:01.955Z,99.78
2018-04-07T06:20:01.969Z,99.99
2018-04-07T06:21:01.993Z,99.99
2018-04-07T06:22:02.020Z,99.83
2018-04-07T06:23:02.013Z,99.99
2018-04-07T06:24:02.051Z,99.88
2018-04-07T06:25:02.149Z,99.44
2018-04-07T06:26:02.080Z,99.06
2018-04-07T06:27:02.068Z,99.25
2018-04-07T06:28:02.100Z,99.15
2018-04-07T06:29:02.110Z,98.48
2018-04-07T06:30:02.216Z,99.06
2018-04-07T06:31:02.126Z,99.06
2018-04-07T06:32:02.151Z,98.96
2018-04-07T06:33:02.190Z,98.96
2018-04-07T06:34:02.203Z,98.96
2018-04-07T06:35:02.192Z,99.25
2018-04-07T06:36:02.201Z,99.25
2018-04-07T06:37:02.245Z,99.11
2018-04-07T06:38:02.245Z,98.86
2018-04-07T06:39:02.251Z,99.44
2018-04-07T06:40:02.276Z,98.86
2018-04-07T06:41:02.277Z,99.25
2018-04-07T06:42:02.300Z,98.77
2018-04-07T06:43:02.333Z,98.96
2018-04-07T06:44:02.350Z,98.96
2018-04-07T06:45:02.486Z,99.44
2018-04-07T06:46:02.360Z,99.06
2018-04-07T06:47:02.375Z,98.96
2018-04-07T06:48:02.451Z,98.96
2018-04-07T06:49:02.389Z,99.15
2018-04-07T06:50:02.520Z,99.25
2018-04-07T06:51:02.421Z,99.06
2018-04-07T06:52:02.470Z,99.15
2018-04-07T06:53:02.445Z,99.06
2018-04-07T06:54:02.476Z,99.06
2018-04-07T06:55:02.493Z,98.48
2018-04-07T06:56:02.516Z,98.00
2018-04-07T06:57:02.540Z,98.39
2018-04-07T06:58:02.527Z,98.19
2018-04-07T06:59:02.570Z,97.71
2018-04-07T07:00:02.683Z,97.71
2018-04-07T07:01:02.596Z,96.94
2018-04-07T07:02:02.610Z,97.42
2018-04-07T07:03:02.599Z,97.71
2018-04-07T07:04:02.636Z,97.42
2018-04-07T07:05:02.756Z,97.42
2018-04-07T07:06:02.666Z,97.71
2018-04-07T07:07:02.686Z,97.52
2018-04-07T07:08:02.672Z,97.04
2018-04-07T07:09:02.745Z,97.24
2018-04-07T07:10:02.802Z,96.85
2018-04-07T07:11:02.719Z,97.04
2018-04-07T07:12:02.755Z,97.04
2018-04-07T07:13:02.744Z,96.17
2018-04-07T07:14:02.755Z,95.98
2018-04-07T07:15:02.918Z,96.94
2018-04-07T07:16:02.801Z,97.57
2018-04-07T07:17:02.828Z,97.33
2018-04-07T07:18:02.833Z,98.05
2018-04-07T07:19:02.854Z,98.19
2018-04-07T07:20:02.954Z,97.38
2018-04-07T07:21:02.858Z,97.47
2018-04-07T07:22:02.901Z,97.09
2018-04-07T07:23:02.885Z,96.99
2018-04-07T07:24:02.916Z,96.32
2018-04-07T07:25:02.922Z,95.70
2018-04-07T07:26:02.936Z,96.08
2018-04-07T07:27:02.973Z,95.89
2018-04-07T07:28:02.963Z,95.75
2018-04-07T07:29:03.003Z,95.45
2018-04-07T07:30:03.084Z,95.45
2018-04-07T07:31:03.035Z,95.55
2018-04-07T07:32:03.020Z,95.17
2018-04-07T07:33:03.066Z,95.75
2018-04-07T07:34:03.101Z,94.88
2018-04-07T07:35:03.062Z,95.65
2018-04-07T07:36:03.175Z,95.26
2018-04-07T07:37:03.093Z,94.54
2018-04-07T07:38:03.104Z,94.64
2018-04-07T07:39:03.148Z,94.59
2018-04-07T07:40:03.163Z,95.07
2018-04-07T07:41:03.246Z,95.36
2018-04-07T07:42:03.207Z,94.49
2018-04-07T07:43:03.173Z,94.98
2018-04-07T07:44:03.216Z,94.88
2018-04-07T07:45:03.217Z,94.78
2018-04-07T07:46:03.335Z,95.26
2018-04-07T07:47:03.234Z,94.69
2018-04-07T07:48:03.252Z,94.40
2018-04-07T07:49:03.267Z,94.49
2018-04-07T07:50:03.307Z,93.82
2018-04-07T07:51:03.403Z,94.59
2018-04-07T07:52:03.314Z,93.87
2018-04-07T07:53:03.322Z,93.73
2018-04-07T07:54:03.340Z,93.92
2018-04-07T07:55:03.350Z,93.73
2018-04-07T07:56:03.364Z,94.11
2018-04-07T07:57:03.412Z,93.92
2018-04-07T07:58:03.406Z,94.01
2018-04-07T07:59:03.412Z,94.06
2018-04-07T08:00:03.439Z,94.11
2018-04-07T08:01:03.565Z,94.11
2018-04-07T08:02:03.456Z,93.58
2018-04-07T08:03:03.494Z,93.73
2018-04-07T08:04:03.480Z,93.82
2018-04-07T08:05:03.499Z,93.25
2018-04-07T08:06:03.646Z,93.34
2018-04-07T08:07:03.556Z,93.25
2018-04-07T08:08:03.549Z,93.44
2018-04-07T08:09:03.555Z,93.15
2018-04-07T08:10:03.594Z,92.77
2018-04-07T08:11:03.577Z,93.54
2018-04-07T08:12:03.626Z,92.96
2018-04-07T08:13:03.607Z,93.15
2018-04-07T08:14:03.651Z,92.96
2018-04-07T08:15:03.648Z,92.67
2018-04-07T08:16:03.782Z,92.77
2018-04-07T08:17:03.697Z,92.57
2018-04-07T08:18:03.699Z,93.05
2018-04-07T08:19:03.698Z,92.48
2018-04-07T08:20:03.714Z,92.38
2018-04-07T08:21:03.828Z,92.77
2018-04-07T08:22:03.752Z,92.19
2018-04-07T08:23:03.785Z,91.71
2018-04-07T08:24:03.795Z,91.52
2018-04-07T08:25:03.813Z,91.33
2018-04-07T08:26:03.813Z,90.75
2018-04-07T08:27:03.813Z,90.56
2018-04-07T08:28:03.835Z,90.37
2018-04-07T08:29:03.852Z,90.27
2018-04-07T08:30:03.882Z,90.46
2018-04-07T08:31:03.976Z,90.27
2018-04-07T08:32:03.946Z,90.56
2018-04-07T08:33:03.913Z,90.94
2018-04-07T08:34:03.938Z,91.23
2018-04-07T08:35:03.934Z,91.04
2018-04-07T08:36:04.055Z,91.04
2018-04-07T08:37:03.958Z,90.94
2018-04-07T08:38:03.980Z,90.46
2018-04-07T08:39:03.997Z,89.60
2018-04-07T08:40:03.999Z,89.60
2018-04-07T08:41:04.047Z,90.37
2018-04-07T08:42:04.190Z,90.08
2018-04-07T08:43:04.036Z,90.08
2018-04-07T08:44:04.056Z,89.69
2018-04-07T08:45:04.099Z,89.98
2018-04-07T08:46:04.092Z,89.89
2018-04-07T08:47:04.229Z,89.12
2018-04-07T08:48:04.120Z,90.17
2018-04-07T08:49:04.131Z,89.98
2018-04-07T08:50:04.141Z,89.69
2018-04-07T08:51:04.204Z,89.79
2018-04-07T08:52:04.186Z,89.89
2018-04-07T08:53:04.198Z,89.98
2018-04-07T08:54:04.200Z,89.69
2018-04-07T08:55:04.217Z,90.17
2018-04-07T08:56:04.230Z,90.08
2018-04-07T08:57:04.347Z,89.89
2018-04-07T08:58:04.279Z,89.89
2018-04-07T08:59:04.301Z,89.40
2018-04-07T09:00:04.318Z,89.89
2018-04-07T09:01:04.328Z,89.98
2018-04-07T09:02:04.341Z,90.17
2018-04-07T09:03:04.341Z,89.98
2018-04-07T09:04:04.347Z,89.79
2018-04-07T09:05:04.372Z,89.89
2018-04-07T09:06:04.401Z,89.98
2018-04-07T09:07:04.411Z,89.31
2018-04-07T09:08:04.425Z,90.08
2018-04-07T09:09:04.409Z,90.08
2018-04-07T09:10:04.433Z,90.17
2018-04-07T09:11:04.456Z,89.69
2018-04-07T09:12:04.459Z,90.17
2018-04-07T09:13:04.500Z,88.45
2018-04-07T09:14:04.515Z,89.22
2018-04-07T09:15:04.526Z,89.07
2018-04-07T09:16:04.539Z,89.69
2018-04-07T09:17:04.640Z,89.89
2018-04-07T09:18:04.572Z,89.22
2018-04-07T09:19:04.583Z,89.12
2018-04-07T09:20:04.619Z,89.26
2018-04-07T09:21:04.611Z,89.60
2018-04-07T09:22:04.704Z,89.17
2018-04-07T09:23:04.638Z,89.02
2018-04-07T09:24:04.657Z,88.73
2018-04-07T09:25:04.643Z,88.06
2018-04-07T09:26:04.683Z,88.16
2018-04-07T09:27:04.680Z,87.77
2018-04-07T09:28:04.710Z,87.49
2018-04-07T09:29:04.708Z,87.77
2018-04-07T09:30:04.718Z,88.06
2018-04-07T09:31:04.740Z,87.96
2018-04-07T09:32:04.758Z,87.87
2018-04-07T09:33:04.761Z,87.87
2018-04-07T09:34:04.774Z,88.25
2018-04-07T09:35:04.803Z,88.45
2018-04-07T09:36:04.825Z,88.54
2018-04-07T09:37:04.924Z,87.96
2018-04-07T09:38:04.837Z,88.25
2018-04-07T09:39:04.846Z,88.16
2018-04-07T09:40:04.854Z,88.25
2018-04-07T09:41:04.902Z,88.25
2018-04-07T09:42:04.926Z,88.06
2018-04-07T09:43:04.899Z,88.25
2018-04-07T09:44:04.922Z,88.06
2018-04-07T09:45:04.929Z,88.45
2018-04-07T09:46:04.976Z,88.25
2018-04-07T09:47:05.061Z,88.35
2018-04-07T09:48:04.999Z,87.96
2018-04-07T09:49:05.015Z,88.16
2018-04-07T09:50:05.001Z,88.16
2018-04-07T09:51:05.022Z,88.54
2018-04-07T09:52:05.050Z,88.45
2018-04-07T09:53:05.045Z,88.16
2018-04-07T09:54:05.063Z,88.35
2018-04-07T09:55:05.087Z,88.25
2018-04-07T09:56:05.085Z,88.16
2018-04-07T09:57:05.235Z,88.35
2018-04-07T09:58:05.144Z,88.59
2018-04-07T09:59:05.162Z,88.39
2018-04-07T10:00:05.174Z,88.68
2018-04-07T10:01:05.167Z,89.54
2018-04-07T10:02:05.340Z,90.31
2018-04-07T10:03:05.192Z,90.03
2018-04-07T10:04:05.210Z,91.08
2018-04-07T10:05:05.224Z,92.05
2018-04-07T10:06:05.248Z,92.14
2018-04-07T10:07:05.246Z,91.75
2018-04-07T10:08:05.283Z,91.47
2018-04-07T10:09:05.277Z,91.28
2018-04-07T10:10:05.326Z,90.99
2018-04-07T10:11:05.314Z,90.60
2018-04-07T10:12:05.325Z,91.95
2018-04-07T10:13:05.354Z,91.95
2018-04-07T10:14:05.390Z,92.05
2018-04-07T10:15:05.403Z,93.01
2018-04-07T10:16:05.415Z,92.52
2018-04-07T10:17:05.530Z,91.75
2018-04-07T10:18:05.442Z,92.91
2018-04-07T10:19:05.460Z,91.85
2018-04-07T10:20:05.448Z,91.85
2018-04-07T10:21:05.461Z,92.14
2018-04-07T10:22:05.645Z,92.24
2018-04-07T10:23:05.493Z,91.90
2018-04-07T10:24:05.514Z,91.90
2018-04-07T10:25:05.525Z,92.76
2018-04-07T10:26:05.566Z,92.57
2018-04-07T10:27:05.551Z,91.99
2018-04-07T10:28:05.571Z,92.19
2018-04-07T10:29:05.601Z,91.99
2018-04-07T10:30:05.624Z,91.42
2018-04-07T10:31:05.625Z,92.86
2018-04-07T10:32:05.641Z,93.34
2018-04-07T10:33:05.643Z,93.15
2018-04-07T10:34:05.679Z,93.34
2018-04-07T10:35:05.702Z,93.15
2018-04-07T10:36:05.717Z,92.96
2018-04-07T10:37:05.709Z,92.86
2018-04-07T10:38:05.730Z,92.76
2018-04-07T10:39:05.736Z,92.47
2018-04-07T10:40:05.747Z,93.15
2018-04-07T10:41:05.797Z,93.24
2018-04-07T10:42:05.908Z,92.86
2018-04-07T10:43:05.801Z,92.76
2018-04-07T10:44:05.843Z,91.61
2018-04-07T10:45:05.829Z,92.29
2018-04-07T10:46:05.877Z,92.76
2018-04-07T10:47:06.038Z,93.05
2018-04-07T10:48:05.907Z,92.47
2018-04-07T10:49:05.922Z,92.67
2018-04-07T10:50:05.908Z,91.80
2018-04-07T10:51:05.928Z,91.13
2018-04-07T10:52:05.936Z,91.22
2018-04-07T10:53:05.983Z,90.84
2018-04-07T10:54:05.969Z,90.55
2018-04-07T10:55:05.992Z,90.45
2018-04-07T10:56:06.002Z,90.17
2018-04-07T10:57:06.023Z,89.88
2018-04-07T10:58:06.143Z,88.92
2018-04-07T10:59:06.072Z,88.82
2018-04-07T11:00:06.091Z,88.15
2018-04-07T11:01:06.103Z,88.34
2018-04-07T11:02:06.096Z,89.69
2018-04-07T11:03:06.283Z,89.98
2018-04-07T11:04:06.123Z,89.21
2018-04-07T11:05:06.163Z,89.01
2018-04-07T11:06:06.174Z,88.92
2018-04-07T11:07:06.173Z,89.01
2018-04-07T11:08:06.200Z,88.34
2018-04-07T11:09:06.214Z,89.11
2018-04-07T11:10:06.216Z,90.07
2018-04-07T11:11:06.256Z,89.21
2018-04-07T11:12:06.254Z,90.07
2018-04-07T11:13:06.363Z,89.88
2018-04-07T11:14:06.292Z,90.17
2018-04-07T11:15:06.295Z,89.88
2018-04-07T11:16:06.312Z,89.88
2018-04-07T11:17:06.353Z,89.40
2018-04-07T11:18:06.469Z,89.98
2018-04-07T11:19:06.384Z,89.83
2018-04-07T11:20:06.375Z,90.41
2018-04-07T11:21:06.384Z,90.50
2018-04-07T11:22:06.403Z,90.79
2018-04-07T11:23:06.431Z,91.08
2018-04-07T11:24:06.433Z,91.56
2018-04-07T11:25:06.478Z,90.98
2018-04-07T11:26:06.496Z,90.69
2018-04-07T11:27:06.506Z,91.75
2018-04-07T11:28:06.526Z,91.85
2018-04-07T11:29:06.542Z,92.43
2018-04-07T11:30:06.535Z,92.81
2018-04-07T11:31:06.546Z,93.00
2018-04-07T11:32:06.560Z,92.52
2018-04-07T11:33:06.601Z,92.52
2018-04-07T11:34:06.601Z,91.85
2018-04-07T11:35:06.611Z,92.43
2018-04-07T11:36:06.632Z,93.10
2018-04-07T11:37:06.652Z,92.08
2018-04-07T11:38:06.681Z,92.47
2018-04-07T11:39:06.672Z,92.47
2018-04-07T11:40:06.715Z,92.66
2018-04-07T11:41:06.737Z,93.43
2018-04-07T11:42:06.748Z,92.66
2018-04-07T11:43:06.743Z,92.85
2018-04-07T11:44:06.778Z,93.33
2018-04-07T11:45:06.855Z,92.85
2018-04-07T11:46:06.810Z,93.72
2018-04-07T11:47:06.803Z,93.67
2018-04-07T11:48:06.993Z,93.67
2018-04-07T11:49:06.862Z,94.06
2018-04-07T11:50:06.850Z,94.06
2018-04-07T11:51:06.870Z,93.87
2018-04-07T11:52:06.884Z,93.96
2018-04-07T11:53:06.946Z,93.67
2018-04-07T11:54:07.046Z,94.82
2018-04-07T11:55:06.985Z,94.54
2018-04-07T11:56:06.996Z,94.15
2018-04-07T11:57:06.973Z,93.67
2018-04-07T11:58:07.011Z,93.87
2018-04-07T11:59:07.026Z,93.77
2018-04-07T12:00:07.058Z,93.67
2018-04-07T12:01:07.048Z,93.91
2018-04-07T12:02:07.051Z,94.01
2018-04-07T12:03:07.072Z,93.72
2018-04-07T12:04:07.082Z,93.81
2018-04-07T12:05:07.148Z,93.52
2018-04-07T12:06:07.172Z,94.39
2018-04-07T12:07:07.132Z,93.81
2018-04-07T12:08:07.162Z,93.81
2018-04-07T12:09:07.267Z,93.62
2018-04-07T12:10:07.184Z,93.38
2018-04-07T12:11:07.244Z,93.38
2018-04-07T12:12:07.226Z,93.48
2018-04-07T12:13:07.247Z,93.24
2018-04-07T12:14:07.354Z,92.94
2018-04-07T12:15:07.302Z,93.33
2018-04-07T12:16:07.293Z,93.57
2018-04-07T12:17:07.308Z,93.52
2018-04-07T12:18:07.328Z,92.76
2018-04-07T12:19:07.438Z,92.99
2018-04-07T12:20:07.371Z,92.90
2018-04-07T12:21:07.374Z,92.71
2018-04-07T12:22:07.394Z,93.09
2018-04-07T12:23:07.474Z,92.99
2018-04-07T12:24:07.429Z,92.99
2018-04-07T12:25:07.468Z,92.41
2018-04-07T12:26:07.471Z,93.09
2018-04-07T12:27:07.491Z,92.71
2018-04-07T12:28:07.496Z,92.71
2018-04-07T12:29:07.637Z,92.61
2018-04-07T12:30:07.571Z,92.71
2018-04-07T12:31:07.633Z,92.80
2018-04-07T12:32:07.562Z,92.90
2018-04-07T12:33:07.579Z,92.03
2018-04-07T12:34:07.624Z,92.61
2018-04-07T12:35:07.643Z,92.65
2018-04-07T12:36:07.658Z,92.46
2018-04-07T12:37:07.661Z,92.36
2018-04-07T12:38:07.674Z,91.78
2018-04-07T12:39:07.812Z,92.46
2018-04-07T12:40:07.743Z,92.27
2018-04-07T12:41:07.738Z,92.60
2018-04-07T12:42:07.832Z,92.60
2018-04-07T12:43:07.783Z,92.32
2018-04-07T12:44:08.030Z,91.54
2018-04-07T12:45:07.804Z,91.64
2018-04-07T12:46:07.826Z,92.22
2018-04-07T12:47:07.863Z,92.32
2018-04-07T12:48:07.886Z,92.99
2018-04-07T12:49:07.980Z,92.41
2018-04-07T12:50:07.887Z,92.50
2018-04-07T12:51:07.966Z,91.88
2018-04-07T12:52:07.936Z,91.93
2018-04-07T12:53:07.940Z,92.16